Time;durP1;ratioP1;P1;durP2;ratioP2;P2;SDS_P1;SDS_P2;PMS_P1;PMS_P2;Temp;Humidity;BMP_temperature;BMP_pressure;BME280_temperature;BME280_humidity;BME280_pressure;Samples;Min_cycle;Max_cycle;Signal;HPM_P1;HPM_P2
2023/01/06 00:00:12;;;;;;;6.60;3.63;;;10.60;99.90;;;;;;5071360;28;20279;-51
2023/01/06 00:02:37;;;;;;;12.38;3.28;;;10.70;99.90;;;;;;5051630;28;20032;-55
2023/01/06 00:05:03;;;;;;;5.57;2.72;;;10.70;99.90;;;;;;5071038;28;20144;-56
2023/01/06 00:07:29;;;;;;;7.72;3.20;;;10.70;99.90;;;;;;5070757;28;20561;-57
2023/01/06 00:09:54;;;;;;;11.15;3.75;;;10.70;99.90;;;;;;5071020;28;20400;-57
2023/01/06 00:12:20;;;;;;;11.57;3.53;;;10.70;99.90;;;;;;5069655;28;20399;-47
2023/01/06 00:14:46;;;;;;;7.15;2.97;;;10.70;99.90;;;;;;5054759;28;20051;-50
2023/01/06 00:17:12;;;;;;;9.68;3.17;;;10.80;99.90;;;;;;5094546;22;20049;-46
2023/01/06 00:19:37;;;;;;;8.25;2.80;;;10.80;99.90;;;;;;5074820;28;20389;-48
2023/01/06 00:22:04;;;;;;;8.48;2.40;;;10.80;99.90;;;;;;5073625;28;20024;-52
2023/01/06 00:24:31;;;;;;;4.65;3.00;;;10.90;99.90;;;;;;5074522;28;20016;-51
2023/01/06 00:26:56;;;;;;;5.43;2.50;;;10.90;99.90;;;;;;5073161;28;20036;-53
2023/01/06 00:29:22;;;;;;;5.43;3.17;;;10.90;99.90;;;;;;5074046;28;20032;-51
2023/01/06 00:31:47;;;;;;;5.50;2.72;;;10.90;99.90;;;;;;5073903;28;20031;-46
2023/01/06 00:34:13;;;;;;;4.53;3.10;;;11.00;99.90;;;;;;5055505;28;20028;-52
2023/01/06 00:36:38;;;;;;;4.90;3.13;;;10.90;99.90;;;;;;5073580;28;20020;-51
2023/01/06 00:39:04;;;;;;;5.10;2.63;;;10.90;99.90;;;;;;5074153;28;20020;-51
2023/01/06 00:44:32;;;;;;;5.60;2.70;;;10.90;99.90;;;;;;4992261;28;20510;-50
2023/01/06 00:46:57;;;;;;;7.72;2.80;;;10.90;99.90;;;;;;5044032;28;20032;-47
2023/01/06 00:49:23;;;;;;;6.38;2.28;;;10.90;99.90;;;;;;5073772;28;20100;-47
2023/01/06 00:51:49;;;;;;;6.30;2.50;;;10.90;99.90;;;;;;5073551;28;20395;-50
2023/01/06 00:54:15;;;;;;;9.35;3.53;;;10.90;99.90;;;;;;5073051;28;20039;-52
2023/01/06 00:56:44;;;;;;;6.10;2.55;;;10.90;99.90;;;;;;5073337;28;20031;-51
2023/01/06 00:59:15;;;;;;;5.40;2.30;;;10.90;99.90;;;;;;5073581;28;20541;-50
2023/01/06 01:01:42;;;;;;;4.10;2.33;;;10.90;99.90;;;;;;5055340;28;20024;-50
2023/01/06 01:04:09;;;;;;;5.18;2.97;;;10.90;99.90;;;;;;5072516;28;20021;-50
2023/01/06 01:06:35;;;;;;;5.10;2.42;;;10.90;99.90;;;;;;5073080;28;20428;-48
2023/01/06 01:09:01;;;;;;;5.15;2.40;;;10.90;99.90;;;;;;5073524;28;20044;-48
2023/01/06 01:14:15;;;;;;;5.95;2.97;;;10.90;99.90;;;;;;5072695;28;20031;-48
2023/01/06 01:16:41;;;;;;;7.18;3.63;;;10.80;99.90;;;;;;5072806;28;20032;-49
2023/01/06 01:19:07;;;;;;;8.27;3.72;;;10.80;99.90;;;;;;5072845;28;20484;-48
2023/01/06 01:21:33;;;;;;;6.85;3.65;;;10.80;99.90;;;;;;5073020;28;20021;-46
2023/01/06 01:23:58;;;;;;;6.60;3.80;;;10.80;99.90;;;;;;5054158;28;20392;-48
2023/01/06 01:26:24;;;;;;;4.32;3.85;;;10.80;99.90;;;;;;5073025;28;20058;-49
2023/01/06 01:28:49;;;;;;;6.53;3.95;;;10.80;99.90;;;;;;5071675;28;20044;-47
2023/01/06 01:31:15;;;;;;;6.57;4.55;;;10.80;99.90;;;;;;5073010;28;20539;-53
2023/01/06 01:33:41;;;;;;;8.52;3.85;;;10.90;99.90;;;;;;5072113;28;20081;-49
2023/01/06 01:36:12;;;;;;;7.07;4.03;;;10.90;99.90;;;;;;5072673;28;20032;-51
2023/01/06 01:38:37;;;;;;;5.95;4.18;;;10.90;99.90;;;;;;5072563;28;20043;-50
2023/01/06 01:41:03;;;;;;;7.55;3.97;;;10.90;99.90;;;;;;5072733;28;20025;-48
2023/01/06 01:43:51;;;;;;;5.45;4.30;;;10.90;99.90;;;;;;5071959;28;20036;-49
2023/01/06 01:46:23;;;;;;;4.80;4.30;;;10.90;99.90;;;;;;5072541;28;20124;-44
2023/01/06 01:48:51;;;;;;;5.07;4.57;;;10.90;99.90;;;;;;5072456;28;20024;-49
2023/01/06 01:51:21;;;;;;;6.50;5.30;;;10.90;99.90;;;;;;5072250;28;20337;-51
2023/01/06 01:53:51;;;;;;;5.70;4.82;;;10.90;99.90;;;;;;5071846;28;20036;-49
2023/01/06 01:56:23;;;;;;;6.30;4.72;;;10.90;99.90;;;;;;5072382;28;20097;-47
2023/01/06 01:58:56;;;;;;;11.05;5.40;;;11.00;99.90;;;;;;5072178;28;20024;-48
2023/01/06 02:01:21;;;;;;;7.25;5.35;;;11.00;99.90;;;;;;5072408;28;20040;-47
2023/01/06 02:03:47;;;;;;;5.82;5.03;;;10.90;99.90;;;;;;5071157;28;20424;-49
2023/01/06 02:06:16;;;;;;;7.68;5.15;;;11.00;99.90;;;;;;5072137;28;20459;-50
2023/01/06 02:08:51;;;;;;;8.77;6.25;;;10.90;99.90;;;;;;5072083;28;20328;-48
2023/01/06 02:11:17;;;;;;;7.25;5.75;;;10.90;99.90;;;;;;5072180;28;20025;-48
2023/01/06 02:13:46;;;;;;;8.18;6.30;;;10.90;99.90;;;;;;5053652;28;20502;-48
2023/01/06 02:16:27;;;;;;;7.28;5.72;;;10.90;99.90;;;;;;5053885;28;20139;-50
2023/01/06 02:19:19;;;;;;;7.00;6.07;;;10.90;99.90;;;;;;5071843;28;20031;-49
2023/01/06 02:22:09;;;;;;;11.93;6.45;;;10.90;99.90;;;;;;5053828;28;20403;-49
2023/01/06 02:25:20;;;;;;;8.98;6.30;;;10.90;99.90;;;;;;5071895;28;20099;-50
2023/01/06 02:28:19;;;;;;;11.38;7.13;;;10.90;99.90;;;;;;5070932;28;20089;-49
2023/01/06 02:31:21;;;;;;;10.27;8.30;;;10.90;99.90;;;;;;5072108;28;20025;-50
2023/01/06 02:33:53;;;;;;;9.02;8.07;;;10.90;99.90;;;;;;5071039;28;20063;-49
2023/01/06 02:36:48;;;;;;;12.52;8.10;;;10.90;99.90;;;;;;5071658;28;20035;-51
2023/01/06 02:39:41;;;;;;;13.52;7.82;;;11.00;99.90;;;;;;5071693;28;20025;-48
2023/01/06 02:42:25;;;;;;;10.45;7.40;;;10.90;99.90;;;;;;5070983;28;20092;-46
2023/01/06 02:45:02;;;;;;;11.93;7.22;;;11.00;99.90;;;;;;5071585;28;20027;-48
2023/01/06 02:48:07;;;;;;;10.77;7.63;;;11.00;99.90;;;;;;5073036;28;20025;-49
2023/01/06 02:50:47;;;;;;;11.57;8.32;;;11.00;99.90;;;;;;5073042;28;20109;-51
2023/01/06 02:53:24;;;;;;;9.43;7.53;;;11.00;99.90;;;;;;5071012;28;20132;-55
2023/01/06 02:55:53;;;;;;;12.63;8.73;;;11.00;99.90;;;;;;5071431;28;20119;-50
2023/01/06 02:58:33;;;;;;;13.18;10.82;;;10.90;99.90;;;;;;5072462;28;20078;-45
2023/01/06 03:01:05;;;;;;;13.93;10.75;;;11.00;99.90;;;;;;5071782;28;20024;-48
2023/01/06 03:03:35;;;;;;;14.10;11.23;;;10.90;99.90;;;;;;5069930;28;20051;-50
2023/01/06 03:06:06;;;;;;;15.38;11.70;;;10.90;99.90;;;;;;5053365;28;20020;-47
2023/01/06 03:08:32;;;;;;;13.63;10.50;;;10.90;99.90;;;;;;5071233;28;20067;-49
2023/01/06 03:11:00;;;;;;;11.88;10.18;;;10.90;99.90;;;;;;5071387;28;20029;-48
2023/01/06 03:13:40;;;;;;;14.27;10.68;;;10.80;99.90;;;;;;5052615;28;20021;-47
2023/01/06 03:16:06;;;;;;;12.20;9.50;;;10.80;99.90;;;;;;5071326;28;20021;-48
2023/01/06 03:18:34;;;;;;;15.80;9.13;;;10.80;99.90;;;;;;5053598;28;20028;-48
2023/01/06 03:21:04;;;;;;;13.32;8.50;;;10.70;99.90;;;;;;5071561;28;20404;-47
2023/01/06 03:23:31;;;;;;;10.63;8.48;;;10.80;99.90;;;;;;5070763;28;20028;-47
2023/01/06 03:25:57;;;;;;;10.40;7.85;;;10.80;99.90;;;;;;5053073;28;20492;-44
2023/01/06 03:28:22;;;;;;;12.95;7.57;;;10.80;99.90;;;;;;5069112;28;20029;-48
2023/01/06 03:30:55;;;;;;;9.15;7.43;;;10.80;99.90;;;;;;5052846;28;20020;-49
2023/01/06 03:33:36;;;;;;;8.30;6.80;;;10.80;99.90;;;;;;5051978;28;20024;-48
2023/01/06 03:36:21;;;;;;;7.15;6.22;;;10.90;99.90;;;;;;5052961;28;20024;-49
2023/01/06 03:39:13;;;;;;;8.80;6.67;;;10.90;99.90;;;;;;5052985;28;20021;-51
2023/01/06 03:44:39;;;;;;;8.25;6.05;;;10.80;99.90;;;;;;5070785;28;20023;-47
2023/01/06 03:47:14;;;;;;;11.30;6.30;;;10.80;99.90;;;;;;5070490;28;20108;-47
2023/01/06 03:50:15;;;;;;;7.50;6.07;;;10.90;99.90;;;;;;5070574;28;20476;-44
2023/01/06 03:52:49;;;;;;;6.20;5.60;;;10.90;99.90;;;;;;5070018;28;20028;-47
2023/01/06 03:55:19;;;;;;;8.48;5.85;;;10.90;99.90;;;;;;5070528;28;20446;-45
2023/01/06 03:57:49;;;;;;;7.55;6.47;;;10.80;99.90;;;;;;5070648;28;20020;-47
2023/01/06 04:00:23;;;;;;;7.38;6.68;;;10.80;99.90;;;;;;5070661;28;20082;-46
2023/01/06 04:02:48;;;;;;;6.72;5.40;;;10.80;99.90;;;;;;5070014;28;20112;-49
2023/01/06 04:05:17;;;;;;;5.22;4.72;;;10.80;99.90;;;;;;5070783;28;20056;-48
2023/01/06 04:07:45;;;;;;;7.45;5.47;;;10.90;99.90;;;;;;5070399;28;20492;-47
2023/01/06 04:10:12;;;;;;;7.30;5.50;;;10.90;99.90;;;;;;5070259;28;20063;-47
2023/01/06 04:12:38;;;;;;;5.25;4.75;;;10.90;99.90;;;;;;5069857;28;20075;-49
2023/01/06 04:15:11;;;;;;;6.38;4.68;;;10.90;99.90;;;;;;5071616;28;20028;-47
2023/01/06 04:17:38;;;;;;;4.00;3.75;;;10.90;99.90;;;;;;5055951;28;20028;-50
2023/01/06 04:20:06;;;;;;;5.22;4.38;;;11.00;99.90;;;;;;5056257;28;20445;-47
2023/01/06 04:22:31;;;;;;;5.47;4.43;;;10.90;99.90;;;;;;5073420;28;20115;-47
2023/01/06 04:24:57;;;;;;;6.75;4.13;;;10.90;99.90;;;;;;5055885;28;20109;-48
2023/01/06 04:27:23;;;;;;;5.70;4.28;;;10.90;99.90;;;;;;5072640;28;20032;-48
2023/01/06 04:29:48;;;;;;;6.05;4.13;;;10.90;99.90;;;;;;5074230;28;20028;-49
2023/01/06 04:32:14;;;;;;;5.03;4.05;;;11.00;99.90;;;;;;5073393;28;20361;-47
2023/01/06 04:34:39;;;;;;;4.95;4.22;;;11.00;99.90;;;;;;5074012;28;20079;-50
2023/01/06 04:37:04;;;;;;;4.93;3.60;;;11.00;99.90;;;;;;5073588;28;20074;-47
2023/01/06 04:39:30;;;;;;;3.95;3.45;;;11.00;99.90;;;;;;5073711;28;20476;-47
2023/01/06 04:41:55;;;;;;;3.67;3.38;;;11.00;99.90;;;;;;5073033;28;20099;-47
2023/01/06 04:44:21;;;;;;;5.10;3.65;;;11.00;99.90;;;;;;5073902;28;20037;-50
2023/01/06 04:46:47;;;;;;;6.55;3.60;;;11.00;99.90;;;;;;5073797;28;20428;-48
2023/01/06 04:49:12;;;;;;;3.40;3.10;;;10.90;99.90;;;;;;5073354;28;20107;-50
2023/01/06 04:51:38;;;;;;;3.00;2.80;;;10.90;99.90;;;;;;5073263;28;20075;-51
2023/01/06 04:54:03;;;;;;;2.55;2.35;;;10.90;99.90;;;;;;5072721;28;20420;-48
2023/01/06 04:56:29;;;;;;;2.00;1.90;;;11.00;99.90;;;;;;5073478;28;20035;-46
2023/01/06 04:58:55;;;;;;;1.70;1.60;;;10.90;99.90;;;;;;5073805;28;20024;-47
2023/01/06 05:01:22;;;;;;;4.43;2.08;;;11.00;99.90;;;;;;5055085;28;20036;-49
2023/01/06 05:03:48;;;;;;;1.33;1.33;;;10.90;99.90;;;;;;5072419;28;20021;-49
2023/01/06 05:06:14;;;;;;;1.42;1.33;;;11.00;99.90;;;;;;5073098;28;20029;-53
2023/01/06 05:08:41;;;;;;;1.63;1.52;;;11.00;99.90;;;;;;5073004;28;20042;-49
2023/01/06 05:11:19;;;;;;;4.05;2.20;;;11.00;99.90;;;;;;5073111;28;20051;-47
2023/01/06 05:13:45;;;;;;;2.50;2.13;;;11.00;99.90;;;;;;5072490;28;20032;-50
2023/01/06 05:16:15;;;;;;;2.45;2.10;;;11.00;99.90;;;;;;5072873;28;20074;-48
2023/01/06 05:18:41;;;;;;;2.63;2.42;;;11.00;99.90;;;;;;5073107;28;20482;-47
2023/01/06 05:21:06;;;;;;;2.80;2.60;;;11.00;99.90;;;;;;5072942;28;20096;-47
2023/01/06 05:23:32;;;;;;;2.55;2.35;;;11.00;99.90;;;;;;5072378;28;20020;-48
2023/01/06 05:25:57;;;;;;;4.57;2.47;;;11.00;99.90;;;;;;5072885;28;20027;-48
2023/01/06 05:28:23;;;;;;;4.82;3.08;;;11.00;99.90;;;;;;5071444;28;20024;-50
2023/01/06 05:30:49;;;;;;;3.25;2.95;;;11.00;99.90;;;;;;5072661;28;20028;-52
2023/01/06 05:33:14;;;;;;;2.72;2.53;;;11.00;99.90;;;;;;5072093;28;20569;-51
2023/01/06 05:35:40;;;;;;;2.35;2.10;;;11.00;99.90;;;;;;5072401;28;20070;-48
2023/01/06 05:38:05;;;;;;;2.50;2.30;;;11.00;99.90;;;;;;5072535;28;20020;-47
2023/01/06 05:40:32;;;;;;;4.22;2.00;;;11.00;99.90;;;;;;5074237;28;20081;-51
2023/01/06 05:42:58;;;;;;;2.75;1.95;;;10.90;99.90;;;;;;5071969;28;20031;-49
2023/01/06 05:45:24;;;;;;;3.08;1.55;;;10.90;99.90;;;;;;5054456;28;20016;-51
2023/01/06 05:47:50;;;;;;;2.38;1.25;;;10.90;99.90;;;;;;5072083;28;20210;-49
2023/01/06 05:50:16;;;;;;;4.63;1.40;;;10.90;99.90;;;;;;5072118;28;20070;-51
2023/01/06 05:52:41;;;;;;;1.58;1.27;;;10.90;99.90;;;;;;5071529;28;20037;-52
2023/01/06 05:55:07;;;;;;;5.40;1.27;;;10.90;99.90;;;;;;5054401;28;20029;-49
2023/01/06 05:57:34;;;;;;;1.98;1.23;;;10.90;99.90;;;;;;5072496;28;20115;-50
2023/01/06 05:59:59;;;;;;;2.10;1.13;;;10.90;99.90;;;;;;5072079;28;20024;-53
2023/01/06 06:02:25;;;;;;;1.67;1.10;;;10.80;99.90;;;;;;5071186;28;20081;-51
2023/01/06 06:04:51;;;;;;;1.88;1.48;;;10.80;99.90;;;;;;5072220;28;20017;-48
2023/01/06 06:07:16;;;;;;;1.00;1.00;;;10.80;99.90;;;;;;5053780;28;20024;-48
2023/01/06 06:09:42;;;;;;;0.73;0.73;;;10.70;99.90;;;;;;5072294;28;20118;-52
2023/01/06 06:12:07;;;;;;;3.35;1.42;;;10.70;99.90;;;;;;5071138;28;20034;-52
2023/01/06 06:14:33;;;;;;;1.60;1.35;;;10.70;99.90;;;;;;5072008;28;20031;-49
2023/01/06 06:17:01;;;;;;;3.65;0.90;;;10.60;99.90;;;;;;5072765;28;20077;-49
2023/01/06 06:19:27;;;;;;;2.28;0.73;;;10.50;99.90;;;;;;5071844;28;20024;-52
2023/01/06 06:21:53;;;;;;;0.73;0.70;;;10.50;99.90;;;;;;5071550;28;20115;-48
2023/01/06 06:24:18;;;;;;;2.15;0.90;;;10.60;99.90;;;;;;5071600;28;20298;-53
2023/01/06 06:26:43;;;;;;;3.03;0.55;;;10.60;99.90;;;;;;5071648;28;20036;-52
2023/01/06 06:29:10;;;;;;;3.60;0.85;;;10.60;99.90;;;;;;5070217;28;20036;-50
2023/01/06 06:31:35;;;;;;;3.33;0.95;;;10.60;99.90;;;;;;5071490;28;20052;-51
2023/01/06 06:34:02;;;;;;;2.05;0.80;;;10.50;99.90;;;;;;5070835;28;20515;-49
2023/01/06 06:36:29;;;;;;;2.05;0.80;;;10.50;99.90;;;;;;5071360;28;20043;-50
2023/01/06 06:38:55;;;;;;;2.47;1.00;;;10.50;99.90;;;;;;5071356;28;20028;-51
2023/01/06 06:41:22;;;;;;;0.93;0.80;;;10.50;99.90;;;;;;5071471;28;20016;-51
2023/01/06 06:43:49;;;;;;;1.05;0.90;;;10.50;99.90;;;;;;5070610;28;20146;-51
2023/01/06 06:46:15;;;;;;;1.33;0.70;;;10.50;99.90;;;;;;5071477;28;20020;-51
2023/01/06 06:48:40;;;;;;;2.60;0.80;;;10.50;99.90;;;;;;5070917;28;20388;-47
2023/01/06 06:51:11;;;;;;;2.85;1.02;;;10.60;99.90;;;;;;5071485;28;20116;-47
2023/01/06 06:53:37;;;;;;;1.90;0.85;;;10.60;99.90;;;;;;5070776;28;20108;-47
2023/01/06 06:56:04;;;;;;;3.30;0.70;;;10.50;99.90;;;;;;5071261;28;20016;-48
2023/01/06 06:58:30;;;;;;;0.82;0.80;;;10.60;99.90;;;;;;5071109;28;20373;-51
2023/01/06 07:00:55;;;;;;;3.60;1.08;;;10.50;99.90;;;;;;5071292;28;20036;-49
2023/01/06 07:03:22;;;;;;;2.35;0.60;;;10.50;99.90;;;;;;5070436;28;20067;-51
2023/01/06 07:05:49;;;;;;;1.02;0.70;;;10.50;99.90;;;;;;5070765;28;20027;-51
2023/01/06 07:08:14;;;;;;;1.88;0.60;;;10.50;99.90;;;;;;5070950;28;20033;-47
2023/01/06 07:10:40;;;;;;;3.65;0.70;;;10.50;99.90;;;;;;5071189;28;20369;-47
2023/01/06 07:13:06;;;;;;;0.80;0.80;;;10.50;99.90;;;;;;5070250;28;20056;-48
2023/01/06 07:15:32;;;;;;;1.95;0.50;;;10.50;99.90;;;;;;5052811;28;20024;-48
2023/01/06 07:18:02;;;;;;;3.58;0.70;;;10.50;99.90;;;;;;5070761;28;20066;-48
2023/01/06 07:20:31;;;;;;;0.65;0.30;;;10.50;99.90;;;;;;5071031;28;20028;-48
2023/01/06 07:22:57;;;;;;;0.60;0.60;;;10.60;99.90;;;;;;5070296;28;20063;-47
2023/01/06 07:25:22;;;;;;;1.13;0.43;;;10.70;99.90;;;;;;5070662;28;20063;-47
2023/01/06 07:27:56;;;;;;;0.50;0.45;;;10.70;99.90;;;;;;5069663;28;20036;-51
2023/01/06 07:30:23;;;;;;;0.95;0.40;;;10.70;99.90;;;;;;5071199;28;20550;-48
2023/01/06 07:32:49;;;;;;;1.13;0.40;;;10.70;99.90;;;;;;5070240;28;20036;-52
2023/01/06 07:35:14;;;;;;;0.77;0.60;;;10.70;99.90;;;;;;5070765;28;20028;-50
2023/01/06 07:37:40;;;;;;;0.60;0.60;;;10.70;99.90;;;;;;5070722;28;20787;-48
2023/01/06 07:40:06;;;;;;;0.50;0.50;;;10.70;99.90;;;;;;5071143;28;20020;-47
2023/01/06 07:42:31;;;;;;;0.52;0.52;;;10.70;99.90;;;;;;5070166;28;20036;-48
2023/01/06 07:44:57;;;;;;;4.18;0.73;;;10.70;99.90;;;;;;5070967;28;20089;-51
2023/01/06 07:47:22;;;;;;;6.38;1.92;;;10.70;99.90;;;;;;5070539;28;20031;-49
2023/01/06 07:49:48;;;;;;;2.40;1.08;;;10.60;99.90;;;;;;5071531;28;20036;-45
2023/01/06 07:52:13;;;;;;;2.42;0.85;;;10.60;99.90;;;;;;5073830;28;20514;-52
2023/01/06 07:54:39;;;;;;;0.52;0.52;;;10.60;99.90;;;;;;5074779;28;20035;-51
2023/01/06 07:57:04;;;;;;;4.45;0.75;;;10.60;99.90;;;;;;5074447;28;20025;-51
2023/01/06 07:59:30;;;;;;;1.85;0.80;;;10.60;99.90;;;;;;5074413;28;20499;-45
2023/01/06 08:01:55;;;;;;;1.75;0.60;;;10.60;99.90;;;;;;5074844;28;20548;-49
2023/01/06 08:04:21;;;;;;;0.57;0.50;;;10.60;99.90;;;;;;5074288;28;20029;-48
2023/01/06 08:06:46;;;;;;;1.10;0.60;;;10.70;99.90;;;;;;5074222;28;20094;-49
2023/01/06 08:09:12;;;;;;;1.58;0.65;;;10.70;99.90;;;;;;5074285;28;20024;-52
2023/01/06 08:11:37;;;;;;;0.65;0.45;;;10.70;99.90;;;;;;5074320;28;20028;-48
2023/01/06 08:14:03;;;;;;;2.80;0.70;;;10.70;99.90;;;;;;5073569;28;20483;-49
2023/01/06 08:16:28;;;;;;;1.80;0.80;;;10.70;99.90;;;;;;5074132;28;20028;-50
2023/01/06 08:18:54;;;;;;;3.50;0.60;;;10.80;99.90;;;;;;5073962;28;20032;-48
2023/01/06 08:21:19;;;;;;;1.90;0.70;;;10.80;99.90;;;;;;5074076;28;20033;-52
2023/01/06 08:23:45;;;;;;;3.15;1.00;;;10.80;99.90;;;;;;5073439;28;20021;-50
2023/01/06 08:26:14;;;;;;;1.08;0.88;;;10.70;99.90;;;;;;5073976;28;20025;-49
2023/01/06 08:28:41;;;;;;;7.10;1.38;;;10.80;99.90;;;;;;5072796;28;20017;-48
2023/01/06 08:31:12;;;;;;;2.95;0.80;;;10.70;99.90;;;;;;5073848;28;20052;-50
2023/01/06 08:33:38;;;;;;;4.57;0.75;;;10.80;99.90;;;;;;5073214;28;20107;-49
2023/01/06 08:36:06;;;;;;;4.82;0.73;;;10.70;99.90;;;;;;5073780;28;20108;-51
2023/01/06 08:38:34;;;;;;;4.63;0.70;;;10.80;99.90;;;;;;5055678;28;20024;-50
2023/01/06 08:41:00;;;;;;;3.40;0.60;;;10.80;99.90;;;;;;5074393;28;20075;-51
2023/01/06 08:43:26;;;;;;;4.50;0.65;;;10.80;99.90;;;;;;5072936;28;20488;-46
2023/01/06 08:45:52;;;;;;;2.08;1.00;;;10.80;99.90;;;;;;5073625;28;20110;-49
2023/01/06 08:48:18;;;;;;;1.88;0.85;;;10.80;99.90;;;;;;5073537;28;20085;-50
2023/01/06 08:50:45;;;;;;;0.40;0.40;;;10.80;99.90;;;;;;5073978;28;20021;-47
2023/01/06 08:53:11;;;;;;;6.88;0.85;;;10.70;99.90;;;;;;5072909;28;20116;-47
2023/01/06 08:55:41;;;;;;;6.47;1.35;;;10.80;99.90;;;;;;5055414;28;20032;-54
2023/01/06 08:58:08;;;;;;;3.55;0.75;;;10.80;99.90;;;;;;5073175;28;20032;-48
2023/01/06 09:00:35;;;;;;;4.63;0.80;;;10.80;99.90;;;;;;5073491;28;20095;-49
2023/01/06 09:03:00;;;;;;;1.58;1.23;;;10.80;99.90;;;;;;5071424;28;20024;-48
2023/01/06 09:05:26;;;;;;;1.33;0.70;;;10.80;99.90;;;;;;5073363;28;20032;-48
2023/01/06 09:07:53;;;;;;;2.28;0.85;;;10.80;99.90;;;;;;5073447;28;20027;-47
2023/01/06 09:10:19;;;;;;;11.52;1.90;;;10.80;99.90;;;;;;5073507;28;20511;-46
2023/01/06 09:12:45;;;;;;;2.38;1.13;;;10.80;99.90;;;;;;5072490;28;20033;-47
2023/01/06 09:15:11;;;;;;;7.25;1.30;;;10.80;99.90;;;;;;5073224;28;20028;-47
2023/01/06 09:17:37;;;;;;;2.22;1.35;;;10.80;99.90;;;;;;5072739;28;20025;-47
2023/01/06 09:20:03;;;;;;;3.78;1.17;;;10.80;99.90;;;;;;5073305;28;20031;-50
2023/01/06 09:22:29;;;;;;;1.73;0.98;;;10.80;99.90;;;;;;5071427;28;20078;-48
2023/01/06 09:24:54;;;;;;;3.30;1.00;;;10.80;99.90;;;;;;5072632;28;20480;-49
2023/01/06 09:27:20;;;;;;;1.98;1.10;;;10.80;99.90;;;;;;5072009;28;20036;-52
2023/01/06 09:29:45;;;;;;;4.03;1.17;;;10.80;99.90;;;;;;5072258;28;20028;-54
2023/01/06 09:32:11;;;;;;;1.30;1.08;;;10.80;99.90;;;;;;5072535;28;20032;-52
2023/01/06 09:34:36;;;;;;;3.22;1.67;;;10.90;99.90;;;;;;5073114;28;20016;-55
2023/01/06 09:37:02;;;;;;;2.15;1.55;;;10.90;99.90;;;;;;5072115;28;20457;-54
2023/01/06 09:39:27;;;;;;;2.00;1.00;;;10.90;99.90;;;;;;5072776;28;20020;-48
2023/01/06 09:42:02;;;;;;;1.25;0.93;;;11.00;99.90;;;;;;5071986;28;20024;-46
2023/01/06 09:44:31;;;;;;;0.70;0.70;;;10.90;99.90;;;;;;5071679;28;20020;-51
2023/01/06 09:46:58;;;;;;;2.20;0.57;;;11.00;99.90;;;;;;5071792;28;20032;-50
2023/01/06 09:49:33;;;;;;;1.67;1.20;;;11.10;99.90;;;;;;5072408;28;20035;-52
2023/01/06 09:52:03;;;;;;;1.60;0.60;;;11.10;99.90;;;;;;5079033;28;20032;-49
2023/01/06 09:54:41;;;;;;;0.85;0.50;;;11.00;99.90;;;;;;5071718;28;20270;-50
2023/01/06 09:57:16;;;;;;;2.85;0.98;;;11.10;99.90;;;;;;5070872;28;20385;-50
2023/01/06 09:59:49;;;;;;;3.85;0.60;;;11.20;99.90;;;;;;5071718;28;20158;-52
2023/01/06 10:02:26;;;;;;;1.85;0.52;;;11.20;99.90;;;;;;5071260;28;20029;-50
2023/01/06 10:04:52;;;;;;;2.22;0.80;;;11.20;99.90;;;;;;5072524;28;20032;-53
2023/01/06 10:07:56;;;;;;;1.55;0.70;;;11.20;99.90;;;;;;5054206;28;20028;-50
2023/01/06 10:10:46;;;;;;;0.70;0.60;;;11.20;99.90;;;;;;5067544;28;20040;-48
2023/01/06 10:13:38;;;;;;;3.13;0.80;;;11.20;99.90;;;;;;5069507;28;20396;-49
2023/01/06 10:16:19;;;;;;;2.33;0.68;;;11.30;99.90;;;;;;5071796;28;20111;-48
2023/01/06 10:19:00;;;;;;;0.77;0.70;;;11.30;99.90;;;;;;5071985;28;20506;-49
2023/01/06 10:21:45;;;;;;;2.88;1.10;;;11.30;99.90;;;;;;5071660;28;20035;-49
2023/01/06 10:24:44;;;;;;;2.20;0.60;;;11.30;99.90;;;;;;5071467;28;20043;-50
2023/01/06 10:27:26;;;;;;;0.77;0.75;;;11.30;99.90;;;;;;5065446;28;20033;-50
2023/01/06 10:29:54;;;;;;;0.82;0.52;;;11.30;99.90;;;;;;5051688;28;20515;-51
2023/01/06 10:32:22;;;;;;;1.33;0.52;;;11.30;99.90;;;;;;5058126;28;20027;-50
2023/01/06 10:34:49;;;;;;;0.80;0.80;;;11.30;99.90;;;;;;5072087;28;20031;-55
2023/01/06 10:37:38;;;;;;;1.17;0.88;;;11.30;99.90;;;;;;5072027;28;20145;-51
2023/01/06 10:40:22;;;;;;;1.88;1.25;;;11.40;99.90;;;;;;5070225;28;20024;-53
2023/01/06 10:42:56;;;;;;;6.88;1.70;;;11.50;99.90;;;;;;5070736;28;20117;-50
2023/01/06 10:45:43;;;;;;;0.73;0.70;;;11.50;99.90;;;;;;5071706;28;20020;-50
2023/01/06 10:48:22;;;;;;;2.40;0.77;;;11.50;99.90;;;;;;5071542;28;20104;-51
2023/01/06 10:50:47;;;;;;;1.52;0.65;;;11.50;99.90;;;;;;5071580;28;20051;-50
2023/01/06 10:53:14;;;;;;;1.38;0.50;;;11.60;99.90;;;;;;5070895;28;20056;-49
2023/01/06 10:55:53;;;;;;;0.95;0.70;;;11.60;99.90;;;;;;5071457;28;20043;-52
2023/01/06 10:58:44;;;;;;;0.70;0.70;;;11.60;99.90;;;;;;5053065;28;20101;-52
2023/01/06 11:01:24;;;;;;;1.00;0.93;;;11.70;99.90;;;;;;5042168;28;20082;-48
2023/01/06 11:04:10;;;;;;;1.80;1.27;;;11.70;99.90;;;;;;5070802;28;20025;-54
2023/01/06 11:06:54;;;;;;;0.95;0.80;;;11.80;99.90;;;;;;5071230;28;20032;-52
2023/01/06 11:09:35;;;;;;;0.93;0.80;;;11.80;99.90;;;;;;5071312;28;20024;-52
2023/01/06 11:12:16;;;;;;;2.63;0.93;;;11.80;99.90;;;;;;5070559;28;20056;-53
2023/01/06 11:14:45;;;;;;;2.28;0.77;;;11.90;99.90;;;;;;5062231;28;20238;-58
2023/01/06 11:17:15;;;;;;;1.40;0.80;;;11.90;99.90;;;;;;5065888;28;20032;-53
2023/01/06 11:19:43;;;;;;;1.23;0.82;;;11.90;99.90;;;;;;5048599;28;20024;-54
2023/01/06 11:22:35;;;;;;;1.85;0.98;;;11.90;99.90;;;;;;5067264;28;20421;-57
2023/01/06 11:25:01;;;;;;;0.77;0.77;;;12.00;99.90;;;;;;5068681;28;20154;-58
2023/01/06 11:27:27;;;;;;;1.58;0.82;;;12.00;99.90;;;;;;5071940;28;20504;-59
2023/01/06 11:29:52;;;;;;;4.70;0.90;;;12.10;99.90;;;;;;5053268;28;20040;-53
2023/01/06 11:32:24;;;;;;;1.45;0.80;;;12.20;99.90;;;;;;5071894;28;20029;-52
2023/01/06 11:34:55;;;;;;;1.08;0.70;;;12.20;99.90;;;;;;5071934;28;20117;-56
2023/01/06 11:37:32;;;;;;;1.52;0.77;;;12.20;99.90;;;;;;5069887;28;20021;-54
2023/01/06 11:39:57;;;;;;;0.85;0.70;;;12.10;99.90;;;;;;5050314;28;20032;-51
2023/01/06 11:42:24;;;;;;;0.98;0.90;;;12.10;99.90;;;;;;5071483;28;20013;-50
2023/01/06 11:44:50;;;;;;;4.10;1.27;;;12.20;99.90;;;;;;5071332;28;20017;-57
2023/01/06 11:47:21;;;;;;;0.70;0.70;;;12.20;99.90;;;;;;5072350;28;20519;-57
2023/01/06 11:49:49;;;;;;;0.95;0.90;;;12.20;99.90;;;;;;5070394;28;20115;-51
2023/01/06 11:52:21;;;;;;;2.25;1.40;;;12.20;99.90;;;;;;5070954;28;20028;-51
2023/01/06 11:55:07;;;;;;;1.50;1.23;;;12.10;99.90;;;;;;5070381;28;20387;-56
2023/01/06 11:58:03;;;;;;;2.45;1.30;;;12.10;99.90;;;;;;5050781;28;20036;-59
2023/01/06 12:00:43;;;;;;;3.03;1.63;;;12.10;99.90;;;;;;5070186;28;20433;-60
2023/01/06 12:03:18;;;;;;;0.93;0.93;;;12.00;99.90;;;;;;5070996;28;20029;-56
2023/01/06 12:06:12;;;;;;;4.60;0.95;;;12.00;99.90;;;;;;5070071;28;20104;-61
2023/01/06 12:09:14;;;;;;;0.90;0.82;;;12.00;99.90;;;;;;5070666;28;20095;-62
2023/01/06 12:11:57;;;;;;;1.42;1.30;;;12.10;99.90;;;;;;5053336;28;20086;-51
2023/01/06 12:14:44;;;;;;;1.55;1.00;;;12.00;99.90;;;;;;5069801;28;20020;-58
2023/01/06 12:17:42;;;;;;;4.10;1.17;;;12.00;99.90;;;;;;5072478;28;20024;-54
2023/01/06 12:20:17;;;;;;;1.77;1.02;;;12.00;99.90;;;;;;5070705;28;20103;-55
2023/01/06 12:22:51;;;;;;;;;;;12.00;99.90;;;;;;5051065;28;20064;-60
2023/01/06 12:25:29;;;;;;;2.05;0.90;;;12.00;99.90;;;;;;5070774;28;19966;-62
2023/01/06 12:28:00;;;;;;;0.80;0.80;;;12.00;99.90;;;;;;5071396;28;20162;-56
2023/01/06 12:30:32;;;;;;;0.98;0.70;;;11.90;99.90;;;;;;5071071;28;20021;-62
2023/01/06 12:33:05;;;;;;;2.35;0.93;;;12.10;99.90;;;;;;5048955;28;20404;-60
2023/01/06 12:35:34;;;;;;;0.52;0.52;;;12.10;99.90;;;;;;5051498;28;20094;-53
2023/01/06 12:38:14;;;;;;;2.25;0.60;;;12.20;99.90;;;;;;5052655;28;20036;-62
2023/01/06 12:40:53;;;;;;;0.60;0.60;;;12.20;99.90;;;;;;5052810;28;20077;-56
2023/01/06 12:43:29;;;;;;;0.68;0.65;;;12.30;99.90;;;;;;5065689;28;20048;-52
2023/01/06 12:46:06;;;;;;;0.80;0.80;;;12.30;99.90;;;;;;5070683;28;20361;-54
2023/01/06 12:48:38;;;;;;;2.58;0.60;;;12.30;99.90;;;;;;5070723;28;20107;-56
2023/01/06 12:51:13;;;;;;;0.70;0.70;;;12.30;99.90;;;;;;5070154;28;20031;-51
2023/01/06 12:53:48;;;;;;;0.90;0.70;;;12.30;99.90;;;;;;5069380;28;20030;-63
2023/01/06 12:56:36;;;;;;;1.48;0.85;;;12.20;99.90;;;;;;5069851;28;20078;-62
2023/01/06 12:59:16;;;;;;;2.00;0.80;;;12.20;99.90;;;;;;5070793;28;20482;-60
2023/01/06 13:02:07;;;;;;;1.67;0.85;;;12.30;99.90;;;;;;5070847;28;20032;-62
2023/01/06 13:04:57;;;;;;;1.27;1.20;;;12.30;99.90;;;;;;5068651;28;20028;-56
2023/01/06 13:07:35;;;;;;;1.52;0.50;;;12.30;99.90;;;;;;5052750;28;20495;-53
2023/01/06 13:10:17;;;;;;;2.00;0.60;;;12.30;99.90;;;;;;5046844;28;20116;-51
2023/01/06 13:12:56;;;;;;;3.80;0.93;;;12.40;99.90;;;;;;5069401;28;20093;-53